Time;durP1;ratioP1;P1;durP2;ratioP2;P2;SDS_P1;SDS_P2;PMS_P1;PMS_P2;Temp;Humidity;BMP_temperature;BMP_pressure;BME280_temperature;BME280_humidity;BME280_pressure;Samples;Min_cycle;Max_cycle;Signal;HPM_P1;HPM_P2
2021/01/30 00:02:26;;;;;;;9.98;4.07;;;7.50;99.90;;;;;;3619650;39;20266;-71
2021/01/30 00:04:52;;;;;;;9.75;4.25;;;7.50;99.90;;;;;;3619617;39;20252;-71
2021/01/30 00:07:18;;;;;;;6.28;4.93;;;7.50;99.90;;;;;;3620329;39;20259;-71
2021/01/30 00:09:45;;;;;;;7.15;4.82;;;7.50;99.90;;;;;;3619517;39;20256;-71
2021/01/30 00:12:11;;;;;;;12.68;4.75;;;7.40;99.90;;;;;;3621254;39;20258;-71
2021/01/30 00:14:40;;;;;;;11.75;4.50;;;7.30;99.90;;;;;;3621801;39;20360;-71
2021/01/30 00:17:08;;;;;;;9.52;4.78;;;7.30;99.90;;;;;;3621963;39;20384;-71
2021/01/30 00:19:36;;;;;;;17.27;5.93;;;7.30;99.90;;;;;;3621537;39;20255;-71
2021/01/30 00:22:06;;;;;;;10.18;5.50;;;7.30;99.90;;;;;;3623169;39;20768;-71
2021/01/30 00:24:32;;;;;;;10.75;5.88;;;7.40;99.90;;;;;;3625074;39;20259;-71
2021/01/30 00:27:01;;;;;;;11.73;5.78;;;7.30;99.90;;;;;;3625085;39;20278;-71
2021/01/30 00:29:31;;;;;;;18.10;10.65;;;7.30;99.90;;;;;;3622373;39;20243;-71
2021/01/30 00:31:58;;;;;;;19.83;10.63;;;7.10;99.90;;;;;;3625153;39;20251;-71
2021/01/30 00:34:27;;;;;;;21.00;11.20;;;7.00;99.90;;;;;;3621536;39;20277;-71
2021/01/30 00:36:55;;;;;;;23.50;13.38;;;6.90;99.90;;;;;;3621756;39;20777;-72
2021/01/30 00:39:23;;;;;;;28.23;11.98;;;6.80;99.90;;;;;;3622638;39;20244;-71
2021/01/30 00:41:50;;;;;;;19.05;11.35;;;6.80;99.90;;;;;;3624125;39;20306;-71
2021/01/30 00:44:17;;;;;;;21.27;11.45;;;6.60;99.90;;;;;;3621653;39;20255;-71
2021/01/30 00:46:47;;;;;;;23.38;12.23;;;6.50;99.90;;;;;;3621842;39;20259;-71
2021/01/30 00:49:14;;;;;;;20.20;11.98;;;6.40;99.90;;;;;;3622822;39;20274;-71
2021/01/30 00:51:41;;;;;;;25.35;11.55;;;6.20;99.90;;;;;;3621663;39;20263;-71
2021/01/30 00:54:07;;;;;;;25.73;12.43;;;6.00;99.90;;;;;;3623586;39;20344;-71
2021/01/30 00:56:34;;;;;;;21.00;10.98;;;6.00;99.90;;;;;;3621485;39;20414;-71
2021/01/30 00:59:00;;;;;;;23.10;12.73;;;5.70;99.90;;;;;;3621524;39;20252;-71
2021/01/30 01:01:27;;;;;;;22.95;13.57;;;5.40;99.90;;;;;;3621273;39;20251;-71
2021/01/30 01:03:53;;;;;;;24.95;13.02;;;5.40;99.90;;;;;;3621013;39;20259;-71
2021/01/30 01:06:20;;;;;;;29.65;12.55;;;5.30;99.90;;;;;;3621103;39;20251;-71
2021/01/30 01:08:47;;;;;;;25.40;12.13;;;5.30;99.90;;;;;;3621051;39;20255;-71
2021/01/30 01:11:13;;;;;;;26.15;13.63;;;5.30;99.90;;;;;;3620537;39;20351;-71
2021/01/30 01:13:40;;;;;;;28.75;12.30;;;5.20;99.90;;;;;;3623610;39;20310;-71
2021/01/30 01:16:06;;;;;;;24.98;12.40;;;5.10;99.90;;;;;;3621847;39;20239;-71
2021/01/30 01:18:33;;;;;;;25.35;12.18;;;5.10;99.90;;;;;;3625648;39;20247;-71
2021/01/30 01:20:59;;;;;;;21.02;11.07;;;5.10;99.90;;;;;;3621204;39;20263;-71
2021/01/30 01:23:26;;;;;;;23.75;10.95;;;5.00;99.90;;;;;;3620552;39;20710;-71
2021/01/30 01:25:53;;;;;;;29.50;12.07;;;4.90;99.90;;;;;;3624034;39;20755;-71
2021/01/30 01:28:19;;;;;;;27.45;10.90;;;4.90;99.90;;;;;;3623010;39;20355;-71
2021/01/30 01:30:46;;;;;;;24.23;11.73;;;4.70;99.90;;;;;;3623446;39;20260;-71
2021/01/30 01:33:12;;;;;;;23.80;10.98;;;4.60;99.90;;;;;;3620935;39;20787;-71
2021/01/30 01:35:38;;;;;;;19.50;11.20;;;4.70;99.90;;;;;;3621519;39;20270;-71
2021/01/30 01:38:05;;;;;;;18.77;10.73;;;4.60;99.90;;;;;;3620746;39;20267;-71
2021/01/30 01:40:35;;;;;;;15.57;9.77;;;4.60;99.90;;;;;;3620501;39;20275;-71
2021/01/30 01:43:05;;;;;;;22.38;11.13;;;4.60;99.90;;;;;;3647345;32;20306;-71
2021/01/30 01:45:32;;;;;;;21.13;10.27;;;4.60;99.90;;;;;;3621096;39;20248;-71
2021/01/30 01:48:01;;;;;;;17.05;10.57;;;4.50;99.90;;;;;;3623707;39;20823;-71
2021/01/30 01:50:36;;;;;;;17.75;10.85;;;4.60;99.90;;;;;;3620545;39;20251;-71
2021/01/30 01:53:07;;;;;;;18.42;9.73;;;4.70;99.90;;;;;;3621049;39;20269;-71
2021/01/30 01:55:34;;;;;;;17.35;9.13;;;4.60;99.90;;;;;;3646141;31;20288;-71
2021/01/30 01:58:03;;;;;;;16.67;9.43;;;4.60;99.90;;;;;;3620907;39;20263;-71
2021/01/30 02:00:30;;;;;;;18.42;11.13;;;4.70;99.90;;;;;;3621403;39;20892;-71
2021/01/30 02:02:57;;;;;;;18.73;10.45;;;4.80;99.90;;;;;;3619960;39;20577;-71
2021/01/30 02:05:27;;;;;;;14.70;10.35;;;4.90;99.90;;;;;;3622883;39;20299;-70
2021/01/30 02:07:58;;;;;;;22.48;10.30;;;4.90;99.90;;;;;;3622608;39;20359;-71
2021/01/30 02:10:27;;;;;;;17.35;9.82;;;4.90;99.90;;;;;;3624988;39;20251;-70
2021/01/30 02:12:58;;;;;;;14.88;9.68;;;4.80;99.90;;;;;;3625026;39;20347;-71
2021/01/30 02:15:25;;;;;;;15.35;9.57;;;4.80;99.90;;;;;;3620709;39;20671;-71
2021/01/30 02:18:03;;;;;;;15.85;8.50;;;4.80;99.90;;;;;;3620383;39;20258;-71
2021/01/30 02:21:02;;;;;;;12.85;9.23;;;4.80;99.90;;;;;;3620083;39;20259;-71
2021/01/30 02:24:13;;;;;;;12.18;8.85;;;4.70;99.90;;;;;;3620788;39;20259;-71
2021/01/30 02:27:31;;;;;;;14.80;9.68;;;4.60;99.90;;;;;;3622623;39;20255;-71
2021/01/30 02:30:29;;;;;;;12.73;8.68;;;4.40;99.90;;;;;;3618218;39;20251;-71
2021/01/30 02:33:19;;;;;;;14.18;9.73;;;4.40;99.90;;;;;;3623075;39;20275;-71
2021/01/30 02:36:05;;;;;;;16.42;10.55;;;4.30;99.90;;;;;;3621289;39;20387;-71
2021/01/30 02:38:34;;;;;;;17.58;9.93;;;4.30;99.90;;;;;;3620984;39;20274;-71
2021/01/30 02:41:10;;;;;;;14.50;9.20;;;4.30;99.90;;;;;;3620410;39;20266;-71
2021/01/30 02:43:42;;;;;;;17.88;10.23;;;4.30;99.90;;;;;;3623929;39;20255;-71
2021/01/30 02:46:13;;;;;;;15.38;9.75;;;4.30;99.90;;;;;;3620404;39;20340;-71
2021/01/30 02:48:44;;;;;;;13.43;8.63;;;4.30;99.90;;;;;;3624054;39;20287;-71
2021/01/30 02:51:18;;;;;;;15.45;8.82;;;4.40;99.90;;;;;;3620876;39;20259;-71
2021/01/30 02:53:48;;;;;;;14.70;9.07;;;4.40;99.90;;;;;;3620266;39;20244;-71
2021/01/30 02:56:15;;;;;;;18.95;10.80;;;4.50;99.90;;;;;;3620033;39;20273;-71
2021/01/30 02:58:47;;;;;;;19.27;11.15;;;4.40;99.90;;;;;;3622189;39;20294;-71
2021/01/30 03:01:14;;;;;;;20.77;13.18;;;4.40;99.90;;;;;;3620069;39;20259;-71
2021/01/30 03:03:41;;;;;;;21.58;12.70;;;4.30;99.90;;;;;;3624246;39;20794;-71
2021/01/30 03:06:21;;;;;;;24.02;12.60;;;4.20;99.90;;;;;;3621820;39;20247;-71
2021/01/30 03:08:53;;;;;;;23.88;14.20;;;4.10;99.90;;;;;;3628550;39;20313;-71
2021/01/30 03:11:26;;;;;;;25.38;13.30;;;4.10;99.90;;;;;;3636863;32;20255;-71
2021/01/30 03:13:57;;;;;;;23.05;12.80;;;4.00;99.90;;;;;;3621135;39;20280;-71
2021/01/30 03:16:29;;;;;;;26.88;13.93;;;4.00;99.90;;;;;;3626970;39;20278;-71
2021/01/30 03:18:58;;;;;;;30.02;13.60;;;3.80;99.90;;;;;;3624376;39;20275;-71
2021/01/30 03:21:26;;;;;;;27.52;15.25;;;3.80;99.90;;;;;;3623487;39;21161;-71
2021/01/30 03:23:55;;;;;;;23.50;12.98;;;3.60;99.90;;;;;;3625646;39;20274;-71
2021/01/30 03:26:24;;;;;;;24.30;12.75;;;3.60;99.90;;;;;;3625040;39;20247;-71
2021/01/30 03:28:51;;;;;;;21.45;12.65;;;3.60;99.90;;;;;;3624640;39;20283;-71
2021/01/30 03:31:18;;;;;;;23.08;13.07;;;3.50;99.90;;;;;;3621131;39;20251;-71
2021/01/30 03:33:44;;;;;;;23.45;13.73;;;3.40;99.90;;;;;;3620364;39;20263;-71
2021/01/30 03:36:11;;;;;;;27.02;14.00;;;3.30;99.90;;;;;;3624608;39;20251;-72
2021/01/30 03:38:37;;;;;;;22.65;12.82;;;3.30;99.90;;;;;;3620243;39;20302;-71
2021/01/30 03:41:05;;;;;;;25.13;14.35;;;3.20;99.90;;;;;;3621130;39;20235;-71
2021/01/30 03:43:32;;;;;;;24.30;14.20;;;3.20;99.90;;;;;;3622507;39;20359;-71
2021/01/30 03:45:58;;;;;;;24.25;13.57;;;3.10;99.90;;;;;;3626015;39;20312;-71
2021/01/30 03:48:25;;;;;;;22.48;13.10;;;3.10;99.90;;;;;;3625588;32;20255;-71
2021/01/30 03:50:51;;;;;;;28.63;14.38;;;3.10;99.90;;;;;;3626020;39;20267;-71
2021/01/30 03:53:18;;;;;;;29.80;13.80;;;3.20;99.90;;;;;;3621964;39;20255;-71
2021/01/30 03:55:44;;;;;;;26.83;14.73;;;3.30;99.90;;;;;;3622072;39;20281;-71
2021/01/30 03:58:12;;;;;;;26.80;13.68;;;3.20;99.90;;;;;;3621131;39;20295;-71
2021/01/30 04:00:38;;;;;;;24.05;13.40;;;3.20;99.90;;;;;;3621792;39;20267;-71
2021/01/30 04:03:05;;;;;;;20.48;13.13;;;3.10;99.90;;;;;;3621102;39;20606;-71
2021/01/30 04:05:32;;;;;;;22.83;13.13;;;3.10;99.90;;;;;;3625019;39;20331;-71
2021/01/30 04:08:00;;;;;;;21.60;12.55;;;3.00;99.90;;;;;;3625167;39;20255;-71
2021/01/30 04:10:29;;;;;;;22.50;12.95;;;3.00;99.90;;;;;;3625738;39;20244;-71
2021/01/30 04:12:57;;;;;;;23.92;12.70;;;3.00;99.90;;;;;;3621619;39;20283;-71
2021/01/30 04:15:27;;;;;;;20.95;12.45;;;2.90;99.90;;;;;;3623772;39;20281;-71
2021/01/30 04:17:53;;;;;;;22.95;12.88;;;2.80;99.90;;;;;;3621721;39;20270;-72
2021/01/30 04:20:20;;;;;;;22.60;13.55;;;2.80;99.90;;;;;;3626003;39;20255;-71
2021/01/30 04:22:47;;;;;;;25.75;15.73;;;2.80;99.90;;;;;;3624087;39;20247;-72
2021/01/30 04:25:14;;;;;;;20.60;12.45;;;2.80;99.90;;;;;;3625002;39;20295;-72
2021/01/30 04:27:41;;;;;;;23.50;13.00;;;2.80;99.90;;;;;;3621864;39;20269;-72
2021/01/30 04:30:10;;;;;;;22.30;12.77;;;2.70;99.90;;;;;;3621865;39;20647;-71
2021/01/30 04:32:37;;;;;;;22.27;13.02;;;2.60;99.90;;;;;;3624000;39;20262;-71
2021/01/30 04:35:05;;;;;;;19.98;11.80;;;2.60;99.90;;;;;;3621539;39;20239;-71
2021/01/30 04:37:31;;;;;;;19.42;12.18;;;2.60;99.90;;;;;;3621601;39;20262;-72
2021/01/30 04:39:57;;;;;;;19.80;12.98;;;2.40;99.90;;;;;;3621741;39;20704;-72
2021/01/30 04:42:34;;;;;;;18.80;11.63;;;2.40;99.90;;;;;;3624647;39;20278;-71
2021/01/30 04:45:07;;;;;;;20.10;11.70;;;2.40;99.90;;;;;;3621389;39;20251;-71
2021/01/30 04:47:43;;;;;;;20.20;12.75;;;2.30;99.90;;;;;;3623248;39;20243;-71
2021/01/30 04:50:15;;;;;;;25.95;15.05;;;2.50;99.90;;;;;;3621269;39;20243;-71
2021/01/30 04:52:50;;;;;;;20.73;13.52;;;2.60;99.90;;;;;;3621690;39;20395;-71
2021/01/30 04:55:46;;;;;;;21.50;12.98;;;2.70;99.90;;;;;;3620931;39;20247;-71
2021/01/30 04:58:17;;;;;;;22.90;13.25;;;2.80;99.90;;;;;;3618702;39;20243;-71
2021/01/30 05:00:58;;;;;;;21.00;12.10;;;2.70;99.90;;;;;;3621573;39;20251;-71
2021/01/30 05:03:55;;;;;;;25.42;14.32;;;2.70;99.90;;;;;;3627191;32;21080;-71
2021/01/30 05:06:28;;;;;;;32.28;15.43;;;2.60;99.90;;;;;;3615948;39;20259;-71
2021/01/30 05:09:02;;;;;;;23.08;14.00;;;2.50;99.90;;;;;;3621606;39;20466;-71
2021/01/30 05:11:30;;;;;;;24.67;13.88;;;2.50;99.90;;;;;;3624411;39;20684;-71
2021/01/30 05:14:03;;;;;;;30.35;14.95;;;2.50;99.90;;;;;;3620988;39;20259;-71
2021/01/30 05:16:34;;;;;;;22.42;12.95;;;2.50;99.90;;;;;;3621172;39;20269;-71
2021/01/30 05:19:04;;;;;;;25.50;15.52;;;2.50;99.90;;;;;;3621016;39;20577;-71
2021/01/30 05:21:38;;;;;;;27.58;15.70;;;2.40;99.90;;;;;;3624389;39;20259;-71
2021/01/30 05:24:05;;;;;;;26.77;15.95;;;2.30;99.90;;;;;;3620685;39;20351;-71
2021/01/30 05:26:46;;;;;;;22.13;12.85;;;2.40;99.90;;;;;;3620940;39;20251;-71
2021/01/30 05:29:14;;;;;;;19.45;12.70;;;2.40;99.90;;;;;;3620712;39;20373;-71
2021/01/30 05:31:51;;;;;;;25.23;14.57;;;2.40;99.90;;;;;;3626234;39;20281;-71
2021/01/30 05:34:23;;;;;;;21.70;13.32;;;2.30;99.90;;;;;;3624087;39;20236;-71
2021/01/30 05:36:54;;;;;;;19.60;11.88;;;2.30;99.90;;;;;;3623849;39;20350;-71
2021/01/30 05:39:40;;;;;;;21.55;12.43;;;2.20;99.90;;;;;;3624948;39;20305;-71
2021/01/30 05:42:12;;;;;;;28.45;14.30;;;2.20;99.90;;;;;;3618894;39;20281;-71
2021/01/30 05:44:46;;;;;;;19.00;12.50;;;2.10;99.90;;;;;;3620551;39;20267;-71
2021/01/30 05:47:17;;;;;;;21.88;13.20;;;2.20;99.90;;;;;;3623588;39;20255;-71
2021/01/30 05:49:57;;;;;;;22.60;13.60;;;2.20;99.90;;;;;;3621104;39;20251;-71
2021/01/30 05:52:28;;;;;;;14.07;9.25;;;2.30;99.90;;;;;;3621181;39;20313;-71
2021/01/30 05:54:55;;;;;;;20.20;13.25;;;2.30;99.90;;;;;;3625434;39;20394;-71
2021/01/30 05:57:21;;;;;;;18.02;11.70;;;2.30;99.90;;;;;;3623987;39;20282;-71
2021/01/30 05:59:50;;;;;;;17.60;11.57;;;2.20;99.90;;;;;;3621027;39;20279;-71
2021/01/30 06:02:20;;;;;;;18.80;11.57;;;2.20;99.90;;;;;;3623969;39;20274;-71
2021/01/30 06:04:48;;;;;;;23.13;12.38;;;2.20;99.90;;;;;;3621661;39;20255;-71
2021/01/30 06:07:28;;;;;;;20.58;12.38;;;2.20;99.90;;;;;;3622632;39;20251;-71
2021/01/30 06:09:55;;;;;;;23.55;12.10;;;2.30;99.90;;;;;;3623862;39;20293;-71
2021/01/30 06:12:26;;;;;;;19.17;11.57;;;2.30;99.90;;;;;;3623624;39;20255;-71
2021/01/30 06:14:54;;;;;;;17.17;10.82;;;2.30;99.90;;;;;;3620244;39;20251;-70
2021/01/30 06:17:31;;;;;;;19.33;11.75;;;2.40;99.90;;;;;;3623898;39;20235;-70
2021/01/30 06:20:05;;;;;;;13.43;9.40;;;2.50;99.90;;;;;;3620943;39;20258;-71
2021/01/30 06:22:32;;;;;;;19.25;11.57;;;2.30;99.90;;;;;;3624145;39;20277;-71
2021/01/30 06:24:58;;;;;;;14.23;10.25;;;2.30;99.90;;;;;;3623699;39;20270;-71
2021/01/30 06:27:30;;;;;;;20.08;12.07;;;2.30;99.90;;;;;;3620395;39;20286;-71
2021/01/30 06:30:01;;;;;;;17.58;9.70;;;2.20;99.90;;;;;;3621926;39;20259;-71
2021/01/30 06:32:35;;;;;;;15.18;10.00;;;2.20;99.90;;;;;;3620046;39;20243;-71
2021/01/30 06:35:20;;;;;;;17.70;10.82;;;2.20;99.90;;;;;;3620494;39;20275;-70
2021/01/30 06:37:50;;;;;;;18.35;10.82;;;2.10;99.90;;;;;;3620545;39;20278;-71
2021/01/30 06:40:21;;;;;;;9.48;5.63;;;2.20;99.90;;;;;;3624035;39;20287;-71
2021/01/30 06:42:50;;;;;;;16.55;9.05;;;2.20;99.90;;;;;;3623217;39;20356;-71
2021/01/30 06:45:27;;;;;;;14.15;9.40;;;2.20;99.90;;;;;;3623034;39;20247;-71
2021/01/30 06:47:54;;;;;;;12.40;9.23;;;2.20;99.90;;;;;;3620281;39;20243;-71
2021/01/30 06:50:30;;;;;;;14.05;9.65;;;2.20;99.90;;;;;;3622230;39;20289;-71
2021/01/30 06:53:13;;;;;;;14.68;9.25;;;2.10;99.90;;;;;;3620120;39;20251;-71
2021/01/30 06:55:39;;;;;;;12.23;8.23;;;2.20;99.90;;;;;;3619623;39;20251;-71
2021/01/30 06:58:07;;;;;;;8.50;6.00;;;2.20;99.90;;;;;;3619944;39;20367;-71
2021/01/30 07:00:36;;;;;;;12.23;8.30;;;2.00;99.90;;;;;;3622873;39;20259;-71
2021/01/30 07:03:12;;;;;;;12.07;8.63;;;2.00;99.90;;;;;;3625826;39;20915;-71
2021/01/30 07:06:01;;;;;;;13.70;9.27;;;2.00;99.90;;;;;;3621233;39;20321;-70
2021/01/30 07:08:50;;;;;;;16.80;9.65;;;2.00;99.90;;;;;;3620881;39;20897;-70
2021/01/30 07:11:44;;;;;;;15.10;9.07;;;2.00;99.90;;;;;;3620186;39;20251;-70
2021/01/30 07:14:20;;;;;;;15.57;10.35;;;2.00;99.90;;;;;;3617516;39;20295;-70
2021/01/30 07:16:55;;;;;;;18.00;11.53;;;1.90;99.90;;;;;;3619642;39;20149;-70
2021/01/30 07:19:32;;;;;;;15.30;11.52;;;1.90;99.90;;;;;;3622947;39;20450;-71
2021/01/30 07:22:05;;;;;;;15.82;10.77;;;2.00;99.90;;;;;;3621781;39;20347;-71
2021/01/30 07:24:36;;;;;;;14.60;9.57;;;2.00;99.90;;;;;;3627860;39;20259;-71
2021/01/30 07:27:08;;;;;;;13.02;10.00;;;2.00;99.90;;;;;;3624205;39;20248;-71
2021/01/30 07:29:44;;;;;;;12.77;10.13;;;2.00;99.90;;;;;;3623276;39;20266;-71
2021/01/30 07:32:16;;;;;;;15.32;10.75;;;2.00;99.90;;;;;;3621841;39;20350;-71
2021/01/30 07:34:55;;;;;;;11.43;8.70;;;2.00;99.90;;;;;;3625018;39;20574;-71
2021/01/30 07:37:34;;;;;;;10.23;8.98;;;2.00;99.90;;;;;;3623224;39;20311;-71
2021/01/30 07:40:03;;;;;;;12.18;8.32;;;2.00;99.90;;;;;;3623089;39;20254;-71
2021/01/30 07:42:38;;;;;;;12.23;8.70;;;1.90;99.90;;;;;;3624515;39;20331;-71
2021/01/30 07:45:13;;;;;;;12.45;9.10;;;1.90;99.90;;;;;;3622651;39;20251;-72
2021/01/30 07:47:47;;;;;;;12.77;8.63;;;1.90;99.90;;;;;;3639411;31;20358;-71
2021/01/30 07:50:24;;;;;;;14.02;8.65;;;1.90;99.90;;;;;;3622061;39;20277;-72
2021/01/30 07:53:01;;;;;;;11.70;8.15;;;2.00;99.90;;;;;;3622318;39;20725;-71
2021/01/30 07:55:28;;;;;;;12.00;9.45;;;2.00;99.90;;;;;;3621824;39;20273;-71
2021/01/30 07:58:26;;;;;;;10.73;7.68;;;2.00;99.90;;;;;;3622416;39;20283;-71
2021/01/30 08:01:15;;;;;;;10.95;8.02;;;1.90;99.90;;;;;;3621977;39;20367;-71
2021/01/30 08:04:10;;;;;;;10.27;8.55;;;2.00;99.90;;;;;;3628626;39;20251;-72
2021/01/30 08:06:45;;;;;;;10.93;8.40;;;2.00;99.90;;;;;;3621739;39;20251;-72
2021/01/30 08:09:21;;;;;;;9.55;7.85;;;2.00;99.90;;;;;;3625428;39;20255;-72
2021/01/30 08:11:57;;;;;;;10.13;8.30;;;2.00;99.90;;;;;;3624511;39;20771;-71
2021/01/30 08:14:43;;;;;;;8.63;7.72;;;2.00;99.90;;;;;;3621568;39;20255;-71
2021/01/30 08:17:28;;;;;;;7.40;5.70;;;2.00;99.90;;;;;;3622388;39;20274;-73
2021/01/30 08:20:00;;;;;;;9.55;7.57;;;2.00;99.90;;;;;;3621872;39;20255;-72
2021/01/30 08:22:35;;;;;;;8.15;7.05;;;2.00;99.90;;;;;;3621557;39;20235;-71
2021/01/30 08:25:06;;;;;;;7.45;6.75;;;2.00;99.90;;;;;;3621647;39;20292;-72
2021/01/30 08:27:37;;;;;;;7.65;6.30;;;2.00;99.90;;;;;;3643986;31;20279;-71
2021/01/30 08:30:06;;;;;;;7.80;6.50;;;2.10;99.90;;;;;;3640380;31;20255;-71
2021/01/30 08:32:53;;;;;;;6.20;5.60;;;2.00;99.90;;;;;;3623302;39;20270;-72
2021/01/30 08:35:51;;;;;;;7.15;5.68;;;2.10;99.90;;;;;;3621510;39;20294;-72
2021/01/30 08:38:39;;;;;;;6.07;5.20;;;2.20;99.90;;;;;;3621217;39;20247;-72
2021/01/30 08:41:47;;;;;;;5.50;4.95;;;2.10;99.90;;;;;;3621611;39;20301;-72
2021/01/30 08:44:36;;;;;;;6.18;5.57;;;2.10;99.90;;;;;;3621298;39;20275;-72
2021/01/30 08:47:10;;;;;;;5.55;5.00;;;2.10;99.90;;;;;;3622722;39;20294;-71
2021/01/30 08:49:38;;;;;;;6.10;5.47;;;2.10;99.90;;;;;;3623228;39;20261;-71
2021/01/30 08:52:24;;;;;;;6.15;5.32;;;2.20;99.90;;;;;;3621198;39;20283;-71
2021/01/30 08:54:51;;;;;;;5.68;4.82;;;2.20;99.90;;;;;;3623907;39;20269;-71
2021/01/30 08:57:45;;;;;;;6.00;4.85;;;2.30;99.90;;;;;;3621387;39;20331;-71
2021/01/30 09:00:48;;;;;;;6.63;5.72;;;2.30;99.90;;;;;;3626705;39;20259;-71
2021/01/30 09:03:42;;;;;;;5.47;4.97;;;2.40;99.90;;;;;;3621447;39;20281;-71
2021/01/30 09:06:09;;;;;;;6.25;5.00;;;2.40;99.90;;;;;;3626578;39;20323;-72
2021/01/30 09:08:42;;;;;;;4.43;4.03;;;2.40;99.90;;;;;;3625184;39;20409;-71
2021/01/30 09:11:34;;;;;;;5.80;5.25;;;2.40;99.90;;;;;;3622294;39;20304;-71
2021/01/30 09:14:05;;;;;;;5.95;5.38;;;2.30;99.90;;;;;;3626607;39;20315;-71
2021/01/30 09:16:40;;;;;;;5.00;4.50;;;2.30;99.90;;;;;;3624838;39;20295;-72
2021/01/30 09:19:14;;;;;;;6.80;5.28;;;2.30;99.90;;;;;;3626549;39;20335;-72
2021/01/30 09:21:52;;;;;;;5.68;5.28;;;2.40;99.90;;;;;;3620524;39;20279;-71
2021/01/30 09:24:52;;;;;;;6.82;5.10;;;2.30;99.90;;;;;;3622519;39;20259;-71
2021/01/30 09:27:22;;;;;;;6.30;5.50;;;2.40;99.90;;;;;;3619715;39;20399;-72
2021/01/30 09:29:51;;;;;;;5.72;5.10;;;2.50;99.90;;;;;;3621563;39;20255;-72
2021/01/30 09:32:26;;;;;;;7.38;5.78;;;2.50;99.90;;;;;;3620866;39;20248;-72
2021/01/30 09:34:55;;;;;;;7.10;5.47;;;2.50;99.90;;;;;;3623738;39;20274;-72
2021/01/30 09:37:33;;;;;;;8.43;6.45;;;2.60;99.90;;;;;;3622305;39;20243;-72
2021/01/30 09:40:01;;;;;;;7.78;6.13;;;2.60;99.90;;;;;;3624675;39;20350;-71
2021/01/30 09:42:28;;;;;;;6.65;5.75;;;2.50;99.90;;;;;;3622513;39;20255;-72
2021/01/30 09:45:06;;;;;;;6.78;5.95;;;2.60;99.90;;;;;;3622609;39;20784;-72
2021/01/30 09:47:34;;;;;;;6.45;5.85;;;2.60;99.90;;;;;;3620396;39;20258;-72
2021/01/30 09:50:04;;;;;;;7.50;6.70;;;2.50;99.90;;;;;;3621306;39;20277;-73
2021/01/30 09:52:31;;;;;;;5.82;5.22;;;2.50;99.90;;;;;;3622364;39;20270;-73
2021/01/30 09:55:05;;;;;;;8.88;7.35;;;2.60;99.90;;;;;;3623169;39;20281;-73
2021/01/30 09:57:31;;;;;;;6.60;6.00;;;2.60;99.90;;;;;;3626649;39;20265;-73
2021/01/30 10:00:02;;;;;;;7.65;5.43;;;2.60;99.90;;;;;;3625655;39;20357;-73
2021/01/30 10:02:30;;;;;;;12.32;8.63;;;2.60;99.90;;;;;;3626655;39;20273;-74
2021/01/30 10:05:07;;;;;;;8.75;7.00;;;2.60;99.90;;;;;;3628951;32;20351;-73
2021/01/30 10:07:34;;;;;;;6.95;6.07;;;2.70;99.90;;;;;;3624575;39;20639;-73
2021/01/30 10:10:01;;;;;;;14.02;8.43;;;2.80;99.90;;;;;;3620115;39;20258;-73
2021/01/30 10:12:34;;;;;;;6.40;5.72;;;2.80;99.90;;;;;;3622858;39;20301;-73
2021/01/30 10:15:01;;;;;;;6.25;5.65;;;2.70;99.90;;;;;;3621937;39;20251;-76
2021/01/30 10:17:30;;;;;;;9.50;7.15;;;2.70;99.90;;;;;;3621013;39;20347;-74
2021/01/30 10:19:59;;;;;;;8.82;6.78;;;2.70;99.90;;;;;;3623554;39;20255;-74
2021/01/30 10:22:36;;;;;;;8.98;7.45;;;2.60;99.90;;;;;;3628039;39;20287;-74
2021/01/30 10:25:07;;;;;;;6.70;5.93;;;2.60;99.90;;;;;;3623428;39;20254;-74
2021/01/30 10:27:34;;;;;;;10.15;6.00;;;2.70;99.90;;;;;;3622248;39;20315;-75
2021/01/30 10:30:01;;;;;;;12.90;9.63;;;2.60;99.90;;;;;;3624616;39;20278;-75
2021/01/30 10:32:39;;;;;;;5.97;5.00;;;2.60;99.90;;;;;;3624863;39;20271;-75
2021/01/30 10:35:13;;;;;;;7.55;6.20;;;2.60;99.90;;;;;;3621229;39;20363;-75
2021/01/30 10:37:43;;;;;;;6.25;5.55;;;2.70;99.90;;;;;;3624026;39;20315;-75
2021/01/30 10:40:19;;;;;;;6.35;5.50;;;2.70;99.90;;;;;;3680509;31;20244;-75
2021/01/30 10:42:47;;;;;;;6.93;5.57;;;2.90;99.90;;;;;;3620818;39;20259;-75
2021/01/30 10:45:18;;;;;;;6.65;5.88;;;3.00;99.90;;;;;;3624366;39;20281;-75
2021/01/30 10:47:49;;;;;;;7.88;5.85;;;3.10;99.90;;;;;;3620486;39;20291;-75
2021/01/30 10:50:20;;;;;;;6.35;5.72;;;3.20;99.90;;;;;;3626003;31;20275;-75
2021/01/30 10:52:49;;;;;;;9.82;7.80;;;3.20;99.90;;;;;;3623039;39;20258;-75
2021/01/30 10:55:31;;;;;;;6.13;5.50;;;3.20;99.90;;;;;;3625955;39;20293;-75
2021/01/30 10:58:16;;;;;;;8.25;5.35;;;3.10;99.90;;;;;;3624375;39;20295;-75
2021/01/30 11:00:42;;;;;;;7.45;6.22;;;3.10;99.90;;;;;;3621250;39;20271;-75
2021/01/30 11:18:52;;;;;;;7.40;5.22;;;3.30;99.90;;;;;;3630086;31;22284;-76
2021/01/30 11:21:33;;;;;;;5.40;4.90;;;3.40;99.90;;;;;;3629306;39;20321;-77
2021/01/30 11:24:16;;;;;;;8.05;5.40;;;3.30;99.90;;;;;;3629003;39;20243;-75
2021/01/30 11:26:44;;;;;;;7.10;5.20;;;3.30;99.90;;;;;;3629524;39;20281;-75
2021/01/30 11:29:32;;;;;;;5.20;4.68;;;3.40;99.90;;;;;;3628604;39;20255;-75
2021/01/30 11:47:10;;;;;;;3.17;2.92;;;3.60;99.90;;;;;;3643614;31;20246;-76
2021/01/30 11:49:38;;;;;;;6.32;3.42;;;3.60;99.90;;;;;;3633773;39;20603;-76
2021/01/30 12:25:11;;;;;;;3.20;2.88;;;3.80;99.90;;;;;;3644206;31;20297;-76
2021/01/30 12:27:49;;;;;;;2.90;2.65;;;3.90;99.90;;;;;;3621452;39;20259;-75
2021/01/30 12:47:46;;;;;;;3.05;2.85;;;4.30;99.90;;;;;;3626225;39;20361;-75
2021/01/30 12:50:14;;;;;;;2.50;2.40;;;4.30;99.90;;;;;;3626918;39;20270;-75
2021/01/30 12:52:41;;;;;;;2.75;2.55;;;4.40;99.90;;;;;;3626096;39;20255;-75
2021/01/30 12:55:08;;;;;;;3.95;2.83;;;4.40;99.90;;;;;;3625864;39;20368;-75
2021/01/30 13:28:59;;;;;;;3.70;2.55;;;4.60;99.90;;;;;;3648671;31;20795;-76
2021/01/30 14:19:49;;;;;;;2.97;1.90;;;4.50;99.90;;;;;;3629695;31;20271;-76
2021/01/30 14:22:16;;;;;;;2.95;2.00;;;4.40;99.90;;;;;;3620281;39;20256;-76
2021/01/30 14:38:56;;;;;;;5.32;2.60;;;4.70;99.90;;;;;;3631145;31;20240;-76
2021/01/30 15:39:33;;;;;;;3.15;2.80;;;4.00;99.90;;;;;;3620754;32;20274;-75
2021/01/30 16:56:18;;;;;;;5.05;3.58;;;3.20;99.90;;;;;;3625939;32;20752;-77
2021/01/30 16:58:47;;;;;;;6.53;4.90;;;3.20;99.90;;;;;;3624552;39;20279;-76
2021/01/30 17:52:54;;;;;;;7.07;5.55;;;3.20;99.90;;;;;;3678458;32;20239;-74
2021/01/30 17:55:21;;;;;;;7.10;5.00;;;3.10;99.90;;;;;;3624704;39;20291;-75
2021/01/30 17:57:48;;;;;;;7.68;5.15;;;3.00;99.90;;;;;;3623098;39;20236;-74
2021/01/30 18:05:44;;;;;;;6.75;5.15;;;2.80;99.90;;;;;;3629250;32;20275;-74
2021/01/30 18:20:53;;;;;;;7.05;5.45;;;2.60;99.90;;;;;;3642597;32;20763;-74
2021/01/30 18:34:04;;;;;;;12.73;7.35;;;2.60;99.90;;;;;;3620691;32;20317;-74
2021/01/30 18:55:34;;;;;;;6.53;5.18;;;2.60;99.90;;;;;;3640795;32;20275;-76
2021/01/30 19:21:13;;;;;;;8.38;5.80;;;2.50;99.90;;;;;;3619805;39;20768;-74
2021/01/30 19:43:43;;;;;;;7.43;5.35;;;2.40;99.90;;;;;;3639657;32;20250;-75
2021/01/30 20:03:08;;;;;;;9.82;5.53;;;2.20;99.90;;;;;;3645017;32;21215;-74
2021/01/30 20:44:51;;;;;;;7.97;5.88;;;2.10;99.90;;;;;;3639765;32;20370;-74
2021/01/30 21:15:55;;;;;;;9.48;5.85;;;2.00;99.90;;;;;;3621146;31;20415;-73
2021/01/30 21:18:22;;;;;;;5.75;4.43;;;2.00;99.90;;;;;;3622082;39;20255;-73
2021/01/30 21:34:45;;;;;;;11.90;6.43;;;1.80;99.90;;;;;;3645541;32;20344;-74
2021/01/30 21:53:48;;;;;;;9.98;6.18;;;1.70;99.90;;;;;;3620763;39;20232;-73
2021/01/30 22:22:22;;;;;;;11.23;5.55;;;1.40;99.90;;;;;;3644148;31;20275;-71
2021/01/30 22:41:44;;;;;;;7.53;6.05;;;1.30;99.90;;;;;;3642019;31;20295;-74
2021/01/30 22:44:11;;;;;;;11.45;6.70;;;1.30;99.90;;;;;;3620760;39;20228;-74
2021/01/30 22:46:37;;;;;;;7.78;5.60;;;1.30;99.90;;;;;;3620063;39;20319;-74
2021/01/30 23:19:36;;;;;;;8.60;5.65;;;1.20;99.90;;;;;;3627597;32;20240;-74
2021/01/30 23:35:47;;;;;;;10.73;6.22;;;1.20;99.90;;;;;;3622331;32;20295;-74
